Terminal Aerodrome Forecast
Issued by NWS Central Illinois

Home | Current Version | Previous Version | Text Only | Print | Product List | Glossary On
Versions: 1 2 3 4 5 6 7 8 9 10 11 12 13 14 15 16
000
FTUS43 KILX 241215 AAA
TAFSPI
TAF AMD
KSPI 241215Z 2412/2512 17008KT P6SM SKC WS018/22050KT
     FM241500 19015G26KT P6SM BKN200
     FM250100 18013G21KT P6SM VCTS OVC050CB
     FM250300 17011G19KT P6SM -SHRA VCTS OVC030CB
     FM250700 16010G19KT 2SM -SHRA OVC010=

USA.gov is the U.S. government's official web portal to all federal, state and local government web resources and services.